Time;durP1;ratioP1;P1;durP2;ratioP2;P2;SDS_P1;SDS_P2;PMS_P1;PMS_P2;Temp;Humidity;BMP_temperature;BMP_pressure;BME280_temperature;BME280_humidity;BME280_pressure;Samples;Min_cycle;Max_cycle;Signal;HPM_P1;HPM_P2
2021/10/24 00:01:19;;;;;;;13.50;9.40;;;3.80;99.90;;;;;;5115688;28;20463;-55
2021/10/24 00:03:46;;;;;;;11.60;8.90;;;3.80;99.90;;;;;;5106662;28;20489;-49
2021/10/24 00:06:17;;;;;;;12.50;9.57;;;3.80;99.90;;;;;;5102279;28;20464;-52
2021/10/24 00:08:44;;;;;;;13.57;9.00;;;3.70;99.90;;;;;;5104421;28;20574;-52
2021/10/24 00:11:11;;;;;;;15.20;9.00;;;3.70;99.90;;;;;;5100549;28;20464;-52
2021/10/24 00:13:39;;;;;;;14.03;9.50;;;3.60;1.00;;;;;;5101074;28;20464;-49
2021/10/24 00:16:06;;;;;;;13.97;9.57;;;3.70;1.00;;;;;;5100454;28;20495;-57
2021/10/24 00:18:38;;;;;;;12.30;9.80;;;3.60;1.00;;;;;;5100918;28;20467;-55
2021/10/24 00:21:05;;;;;;;11.90;9.17;;;3.60;1.00;;;;;;5100708;28;20470;-56
2021/10/24 00:23:32;;;;;;;15.23;10.30;;;3.60;1.00;;;;;;5100704;28;20882;-54
2021/10/24 00:26:01;;;;;;;12.07;9.97;;;3.60;1.00;;;;;;5106960;28;20872;-57
2021/10/24 00:28:29;;;;;;;12.77;9.53;;;3.70;1.00;;;;;;5118204;28;20473;-54
2021/10/24 00:30:59;;;;;;;11.90;9.17;;;3.80;1.00;;;;;;5120542;28;20471;-57
2021/10/24 00:33:26;;;;;;;10.80;9.23;;;3.80;1.00;;;;;;5120716;28;20467;-52
2021/10/24 00:35:53;;;;;;;10.93;9.70;;;3.70;99.90;;;;;;5120358;28;20471;-53
2021/10/24 00:38:25;;;;;;;10.70;9.10;;;3.60;99.90;;;;;;5120153;28;20501;-50
2021/10/24 00:40:52;;;;;;;12.00;8.80;;;3.60;99.90;;;;;;5120064;28;20468;-57
2021/10/24 00:43:19;;;;;;;12.20;9.73;;;3.60;1.00;;;;;;5120171;28;20468;-51
2021/10/24 00:45:46;;;;;;;11.47;9.40;;;3.70;1.00;;;;;;5119755;28;20498;-52
2021/10/24 00:48:14;;;;;;;13.97;9.30;;;3.60;99.90;;;;;;5120294;28;20469;-50
2021/10/24 00:50:45;;;;;;;14.70;9.10;;;3.60;99.90;;;;;;5120282;28;20528;-50
2021/10/24 00:53:14;;;;;;;11.77;8.67;;;3.60;99.90;;;;;;5120379;28;20468;-51
2021/10/24 00:55:45;;;;;;;14.27;8.93;;;3.60;99.90;;;;;;5119953;28;20463;-50
2021/10/24 00:58:15;;;;;;;12.00;8.77;;;3.60;99.90;;;;;;5118736;28;20472;-53
2021/10/24 01:00:42;;;;;;;12.17;9.43;;;3.50;99.90;;;;;;5115013;28;20526;-48
2021/10/24 01:03:13;;;;;;;12.43;9.77;;;3.60;1.00;;;;;;5100499;28;20460;-51
2021/10/24 01:05:41;;;;;;;10.57;9.23;;;3.70;1.00;;;;;;5099375;28;20468;-47
2021/10/24 01:08:12;;;;;;;11.20;8.40;;;3.60;99.90;;;;;;5113298;28;20593;-53
2021/10/24 01:10:39;;;;;;;13.43;9.20;;;3.50;99.90;;;;;;5099704;28;20465;-49
2021/10/24 01:13:07;;;;;;;12.07;9.07;;;3.40;99.90;;;;;;5100015;28;21159;-54
2021/10/24 01:15:34;;;;;;;9.47;8.40;;;3.30;1.00;;;;;;5099837;28;20464;-52
2021/10/24 01:18:01;;;;;;;13.73;8.20;;;3.30;1.00;;;;;;5100034;28;20464;-56
2021/10/24 01:20:30;;;;;;;10.93;8.00;;;3.40;1.00;;;;;;5113424;28;20465;-57
2021/10/24 01:22:59;;;;;;;13.23;8.47;;;3.30;1.00;;;;;;5119641;28;20474;-54
2021/10/24 01:25:29;;;;;;;10.97;8.47;;;3.30;1.00;;;;;;5119922;28;20562;-54
2021/10/24 01:27:56;;;;;;;9.73;7.97;;;3.20;1.00;;;;;;5118940;28;20882;-57
2021/10/24 01:30:23;;;;;;;10.13;8.20;;;3.20;1.00;;;;;;5105110;28;20561;-57
2021/10/24 01:32:51;;;;;;;15.13;8.63;;;3.10;99.90;;;;;;5100138;28;20470;-57
2021/10/24 01:35:18;;;;;;;12.77;8.10;;;3.10;99.90;;;;;;5100021;28;20912;-51
2021/10/24 01:37:45;;;;;;;10.67;8.20;;;3.10;99.90;;;;;;5099156;28;20522;-53
2021/10/24 01:40:16;;;;;;;9.83;8.40;;;3.00;99.90;;;;;;5099907;28;20888;-48
2021/10/24 01:42:48;;;;;;;12.37;9.00;;;3.00;1.00;;;;;;5099503;28;20439;-54
2021/10/24 01:45:15;;;;;;;11.30;9.10;;;3.00;1.00;;;;;;5099960;28;20461;-49
2021/10/24 01:47:45;;;;;;;12.67;8.57;;;2.90;99.90;;;;;;5099034;28;20450;-53
2021/10/24 01:50:12;;;;;;;11.10;8.90;;;3.00;1.00;;;;;;5099376;28;20960;-55
2021/10/24 01:52:43;;;;;;;9.00;7.77;;;3.00;1.00;;;;;;5099433;28;20901;-53
2021/10/24 01:55:15;;;;;;;14.07;8.40;;;3.00;59.60;;;;;;5099499;28;20469;-52
2021/10/24 01:57:48;;;;;;;9.73;8.30;;;2.90;1.00;;;;;;5098938;28;20464;-53
2021/10/24 02:00:16;;;;;;;10.87;8.67;;;3.00;99.90;;;;;;5099926;28;20468;-52
2021/10/24 02:02:44;;;;;;;9.57;8.23;;;3.00;99.90;;;;;;5101377;28;20749;-49
2021/10/24 02:05:11;;;;;;;9.60;8.60;;;2.90;99.90;;;;;;5105075;28;20466;-50
2021/10/24 02:07:38;;;;;;;10.13;8.07;;;2.80;1.00;;;;;;5099243;28;20746;-56
2021/10/24 02:10:07;;;;;;;12.90;9.23;;;2.90;99.90;;;;;;5099006;28;20816;-53
2021/10/24 02:12:36;;;;;;;10.47;8.30;;;2.90;83.30;;;;;;5098211;28;20439;-54
2021/10/24 02:15:05;;;;;;;9.30;7.90;;;2.90;1.00;;;;;;5099078;28;20472;-54
2021/10/24 02:17:31;;;;;;;10.33;8.67;;;2.90;99.90;;;;;;5097882;28;20496;-54
2021/10/24 02:19:59;;;;;;;10.63;9.17;;;2.90;1.00;;;;;;5098813;28;20450;-54
2021/10/24 02:22:27;;;;;;;13.93;8.80;;;2.80;1.00;;;;;;5099275;28;20460;-55
2021/10/24 02:24:54;;;;;;;9.80;8.07;;;2.80;1.00;;;;;;5103905;28;20951;-50
2021/10/24 02:27:21;;;;;;;10.77;9.23;;;2.70;99.90;;;;;;5117824;28;20529;-56
2021/10/24 02:29:54;;;;;;;11.37;8.40;;;2.80;99.90;;;;;;5118103;28;21010;-53
2021/10/24 02:32:21;;;;;;;11.03;8.80;;;2.80;99.90;;;;;;5118181;28;20470;-54
2021/10/24 02:34:48;;;;;;;13.10;8.97;;;2.80;1.00;;;;;;5118307;28;20474;-52
2021/10/24 02:37:16;;;;;;;13.70;8.13;;;2.80;99.90;;;;;;5118142;28;20468;-53
2021/10/24 02:39:43;;;;;;;14.87;9.23;;;2.90;1.00;;;;;;5118095;28;20455;-53
2021/10/24 02:42:10;;;;;;;11.73;8.70;;;2.80;1.00;;;;;;5117499;28;20511;-49
2021/10/24 02:44:37;;;;;;;10.57;7.70;;;2.80;1.00;;;;;;5118025;28;20467;-54
2021/10/24 02:47:06;;;;;;;11.43;8.87;;;2.70;1.00;;;;;;5117837;28;20491;-53
2021/10/24 02:49:33;;;;;;;13.90;9.80;;;2.70;48.00;;;;;;5117977;28;20548;-55
2021/10/24 02:52:03;;;;;;;11.27;9.70;;;2.70;99.90;;;;;;5117783;28;20442;-48
2021/10/24 02:54:31;;;;;;;12.27;9.50;;;2.60;99.90;;;;;;5117846;28;20463;-53
2021/10/24 02:57:00;;;;;;;12.10;8.00;;;2.70;99.90;;;;;;5117758;28;20438;-54
2021/10/24 02:59:27;;;;;;;10.80;9.20;;;2.70;99.90;;;;;;5099371;28;20460;-49
2021/10/24 03:01:56;;;;;;;13.53;10.03;;;2.70;1.00;;;;;;5100156;28;20578;-47
2021/10/24 03:04:25;;;;;;;15.17;9.80;;;2.60;1.00;;;;;;5102866;28;20434;-55
2021/10/24 03:06:52;;;;;;;12.63;9.03;;;2.70;1.00;;;;;;5097524;28;20456;-52
2021/10/24 03:09:19;;;;;;;14.40;9.30;;;2.70;1.00;;;;;;5098097;28;20749;-54
2021/10/24 03:11:46;;;;;;;13.07;9.00;;;2.60;1.00;;;;;;5097755;28;20472;-57
2021/10/24 03:14:14;;;;;;;10.67;8.83;;;2.50;1.00;;;;;;5097932;28;20465;-51
2021/10/24 03:16:41;;;;;;;11.30;9.03;;;2.60;99.90;;;;;;5097511;28;20484;-57
2021/10/24 03:19:08;;;;;;;10.17;8.33;;;2.60;1.00;;;;;;5098347;28;20891;-55
2021/10/24 03:21:37;;;;;;;14.00;9.83;;;2.50;1.00;;;;;;5097975;28;20539;-57
2021/10/24 03:24:05;;;;;;;10.07;8.90;;;2.50;1.00;;;;;;5097475;28;20464;-56
2021/10/24 03:26:33;;;;;;;14.47;9.53;;;2.50;1.00;;;;;;5103155;28;20736;-50
2021/10/24 03:29:01;;;;;;;9.63;8.50;;;2.50;1.00;;;;;;5116352;28;20865;-51
2021/10/24 03:31:28;;;;;;;14.33;8.97;;;2.50;1.00;;;;;;5117390;28;20521;-52
2021/10/24 03:33:55;;;;;;;12.70;9.27;;;2.40;99.90;;;;;;5116877;28;20438;-48
2021/10/24 03:36:22;;;;;;;12.13;9.30;;;2.30;1.00;;;;;;5117344;28;20829;-50
2021/10/24 03:38:51;;;;;;;11.17;9.33;;;2.40;1.00;;;;;;5116708;28;20830;-54
2021/10/24 03:41:18;;;;;;;11.97;9.30;;;2.40;1.00;;;;;;5117163;28;20517;-54
2021/10/24 03:43:48;;;;;;;13.73;9.33;;;2.40;4.70;;;;;;5116936;28;20528;-56
2021/10/24 03:46:15;;;;;;;10.40;8.77;;;2.40;75.10;;;;;;5117005;28;20464;-54
2021/10/24 03:48:42;;;;;;;16.20;9.57;;;2.30;84.10;;;;;;5116465;28;20849;-57
2021/10/24 03:51:09;;;;;;;10.77;8.90;;;2.30;99.90;;;;;;5117242;28;20817;-53
2021/10/24 03:53:39;;;;;;;13.03;9.50;;;2.30;99.90;;;;;;5111156;28;20451;-57
2021/10/24 03:56:07;;;;;;;15.60;10.00;;;2.30;99.90;;;;;;5099332;28;20474;-55
2021/10/24 03:58:34;;;;;;;13.63;9.10;;;2.20;99.90;;;;;;5096452;28;20468;-54
2021/10/24 04:01:01;;;;;;;10.80;8.80;;;2.30;99.90;;;;;;5097213;28;20457;-58
2021/10/24 04:03:30;;;;;;;18.53;9.80;;;2.30;99.90;;;;;;5097833;28;20525;-58
2021/10/24 04:05:58;;;;;;;11.20;8.53;;;2.30;99.90;;;;;;5097288;28;20812;-58
2021/10/24 04:08:31;;;;;;;12.53;8.30;;;2.20;99.90;;;;;;5097257;28;20842;-58
2021/10/24 04:10:58;;;;;;;11.73;9.13;;;2.30;99.90;;;;;;5097364;28;20497;-57
2021/10/24 04:13:27;;;;;;;11.47;9.00;;;2.30;99.90;;;;;;5106631;28;20852;-54
2021/10/24 04:15:54;;;;;;;12.97;9.53;;;2.30;99.90;;;;;;5116246;28;20491;-57
2021/10/24 04:18:21;;;;;;;23.87;15.60;;;2.30;99.90;;;;;;5116592;28;20467;-57
2021/10/24 04:20:48;;;;;;;20.57;13.13;;;2.40;99.90;;;;;;5117191;28;20434;-54
2021/10/24 04:23:15;;;;;;;22.30;15.30;;;2.30;82.60;;;;;;5116748;28;20468;-53
2021/10/24 04:25:42;;;;;;;20.60;14.00;;;2.30;26.40;;;;;;5116501;28;20887;-54
2021/10/24 04:28:09;;;;;;;19.17;13.80;;;2.20;1.00;;;;;;5114497;28;20471;-56
2021/10/24 04:30:37;;;;;;;18.53;13.93;;;2.30;1.00;;;;;;5116836;28;20495;-58
2021/10/24 04:33:04;;;;;;;12.70;10.33;;;2.20;1.00;;;;;;5116699;28;20801;-54
2021/10/24 04:35:31;;;;;;;15.27;9.30;;;2.30;11.90;;;;;;5116237;28;20464;-56
2021/10/24 04:37:58;;;;;;;10.97;9.00;;;2.30;5.70;;;;;;5116462;28;20827;-51
2021/10/24 04:40:28;;;;;;;11.43;8.80;;;2.20;1.00;;;;;;5116858;28;20533;-56
2021/10/24 04:42:55;;;;;;;12.90;10.07;;;2.20;1.00;;;;;;5120498;28;20882;-55
2021/10/24 04:45:23;;;;;;;12.27;9.10;;;2.20;1.00;;;;;;5120472;28;20468;-57
2021/10/24 04:47:55;;;;;;;12.20;8.50;;;2.10;1.00;;;;;;5120099;28;20544;-55
2021/10/24 04:50:23;;;;;;;11.60;8.67;;;2.10;1.00;;;;;;5120003;28;20523;-56
2021/10/24 04:52:51;;;;;;;12.17;8.33;;;2.00;1.00;;;;;;5120269;28;20521;-57
2021/10/24 04:55:18;;;;;;;10.30;8.50;;;2.00;1.00;;;;;;5119607;28;20466;-54
2021/10/24 04:57:45;;;;;;;12.70;9.87;;;1.90;4.00;;;;;;5113844;28;20464;-57
2021/10/24 05:00:13;;;;;;;11.47;8.33;;;1.90;99.90;;;;;;5119604;28;20464;-58
2021/10/24 05:02:40;;;;;;;12.37;8.60;;;1.80;99.90;;;;;;5100309;28;20447;-55
2021/10/24 05:05:10;;;;;;;15.43;9.13;;;1.80;99.90;;;;;;5102082;28;20471;-58
2021/10/24 05:07:38;;;;;;;13.13;8.90;;;1.90;99.90;;;;;;5100679;28;20457;-58
2021/10/24 05:10:06;;;;;;;11.17;8.37;;;1.90;99.90;;;;;;5099934;28;20571;-58
2021/10/24 05:12:34;;;;;;;10.20;8.37;;;1.90;99.90;;;;;;5100159;28;20497;-58
2021/10/24 05:15:01;;;;;;;11.67;8.47;;;2.00;99.90;;;;;;5100439;28;20515;-54
2021/10/24 05:17:28;;;;;;;11.10;8.77;;;1.90;99.90;;;;;;5099663;28;20488;-56
2021/10/24 05:19:55;;;;;;;10.57;9.17;;;1.90;99.90;;;;;;5099570;28;20461;-56
2021/10/24 05:22:26;;;;;;;12.07;9.10;;;1.90;99.90;;;;;;5099929;28;20530;-56
2021/10/24 05:24:53;;;;;;;11.20;8.93;;;1.80;99.90;;;;;;5099623;28;20468;-56
2021/10/24 05:27:20;;;;;;;11.70;8.10;;;1.70;99.90;;;;;;5113913;28;20547;-57
2021/10/24 05:29:47;;;;;;;11.90;9.30;;;1.70;99.90;;;;;;5100571;28;20496;-53
2021/10/24 05:32:14;;;;;;;13.70;9.03;;;1.70;99.90;;;;;;5100073;28;20529;-52
2021/10/24 05:34:42;;;;;;;13.97;9.90;;;1.70;99.90;;;;;;5099445;28;20464;-53
2021/10/24 05:37:09;;;;;;;11.03;7.90;;;1.70;99.90;;;;;;5117727;28;20467;-56
2021/10/24 05:39:38;;;;;;;14.00;8.37;;;1.70;99.90;;;;;;5119623;28;20459;-58
2021/10/24 05:42:05;;;;;;;13.20;9.07;;;1.70;99.90;;;;;;5119521;28;20516;-57
2021/10/24 05:44:35;;;;;;;11.53;8.37;;;1.60;99.90;;;;;;5119050;28;20474;-58
2021/10/24 05:47:02;;;;;;;9.87;8.80;;;1.70;99.90;;;;;;5100875;28;20468;-57
2021/10/24 05:49:35;;;;;;;10.73;8.77;;;1.60;99.90;;;;;;5099476;28;20468;-57
2021/10/24 05:52:02;;;;;;;14.63;11.07;;;1.70;99.90;;;;;;5098862;28;20878;-56
2021/10/24 05:54:32;;;;;;;17.90;10.33;;;1.60;99.90;;;;;;5098515;28;20517;-58
2021/10/24 05:57:00;;;;;;;17.40;11.23;;;1.50;99.90;;;;;;5105330;28;20532;-58
2021/10/24 05:59:27;;;;;;;13.50;9.70;;;1.50;99.90;;;;;;5118613;28;20463;-57
2021/10/24 06:01:54;;;;;;;12.27;9.27;;;1.50;99.90;;;;;;5104385;28;20479;-56
2021/10/24 06:04:21;;;;;;;10.70;8.40;;;1.40;99.90;;;;;;5103616;28;20526;-57
2021/10/24 06:06:54;;;;;;;10.40;8.83;;;1.50;99.90;;;;;;5098799;28;20448;-58
2021/10/24 06:09:29;;;;;;;13.00;8.10;;;1.50;99.90;;;;;;5099016;28;20521;-56
2021/10/24 06:11:59;;;;;;;12.20;9.50;;;1.40;99.90;;;;;;5112879;28;20909;-56
2021/10/24 06:14:28;;;;;;;11.30;8.73;;;1.40;99.90;;;;;;5104252;28;20446;-55
2021/10/24 06:16:55;;;;;;;11.40;8.63;;;1.30;99.90;;;;;;5098696;28;20492;-56
2021/10/24 06:19:24;;;;;;;13.63;9.60;;;1.40;99.90;;;;;;5098641;28;20464;-57
2021/10/24 06:21:55;;;;;;;11.27;8.30;;;1.30;99.90;;;;;;5099021;28;20467;-55
2021/10/24 06:24:22;;;;;;;10.60;8.77;;;1.30;99.90;;;;;;5098325;28;20464;-56
2021/10/24 06:26:49;;;;;;;13.17;8.80;;;1.40;99.90;;;;;;5107326;28;20936;-55
2021/10/24 06:29:16;;;;;;;13.80;9.17;;;1.30;99.90;;;;;;5117326;28;20796;-56
2021/10/24 06:31:44;;;;;;;11.33;9.00;;;1.30;99.90;;;;;;5111980;28;20835;-53
2021/10/24 06:34:12;;;;;;;12.63;9.30;;;1.20;99.90;;;;;;5118843;28;20459;-53
2021/10/24 06:36:39;;;;;;;16.97;9.47;;;1.20;99.90;;;;;;5098721;28;20939;-54
2021/10/24 06:39:06;;;;;;;13.77;9.77;;;1.30;99.90;;;;;;5098236;28;20833;-57
2021/10/24 06:41:38;;;;;;;11.17;9.27;;;1.30;99.90;;;;;;5098523;28;20478;-56
2021/10/24 06:44:05;;;;;;;12.23;9.07;;;1.30;99.90;;;;;;5097567;28;20522;-58
2021/10/24 06:46:32;;;;;;;11.07;9.40;;;1.40;99.90;;;;;;5098189;28;20464;-57
2021/10/24 06:49:00;;;;;;;12.80;10.63;;;1.50;99.90;;;;;;5098251;28;20515;-51
2021/10/24 06:51:27;;;;;;;15.63;9.60;;;1.60;99.90;;;;;;5098109;28;20521;-56
2021/10/24 06:53:57;;;;;;;12.40;10.63;;;1.60;99.90;;;;;;5098791;28;20470;-55
2021/10/24 06:56:24;;;;;;;13.33;10.47;;;1.60;99.90;;;;;;5099345;28;20478;-56
2021/10/24 06:58:51;;;;;;;16.90;12.03;;;1.70;99.90;;;;;;5112883;28;20467;-54
2021/10/24 07:01:18;;;;;;;16.80;11.17;;;1.70;99.90;;;;;;5104905;28;20459;-55
2021/10/24 07:03:45;;;;;;;13.63;10.00;;;1.80;99.90;;;;;;5111622;28;20471;-56
2021/10/24 07:06:17;;;;;;;13.20;10.60;;;1.90;99.90;;;;;;5101423;28;20483;-57
2021/10/24 07:08:47;;;;;;;14.50;11.63;;;2.00;99.90;;;;;;5103322;28;20491;-55
2021/10/24 07:11:14;;;;;;;19.07;13.30;;;2.10;99.90;;;;;;5101751;28;20934;-56
2021/10/24 07:13:41;;;;;;;13.67;10.60;;;2.20;99.90;;;;;;5100777;28;20503;-58
2021/10/24 07:16:10;;;;;;;13.70;10.20;;;2.40;99.90;;;;;;5101413;28;20491;-57
2021/10/24 07:18:38;;;;;;;18.57;10.60;;;2.60;99.90;;;;;;5102025;28;20452;-58
2021/10/24 07:21:08;;;;;;;15.97;10.33;;;2.70;99.90;;;;;;5100009;28;20510;-56
2021/10/24 07:23:36;;;;;;;12.67;9.50;;;2.90;99.90;;;;;;5111534;28;20466;-58
2021/10/24 07:26:04;;;;;;;16.20;11.00;;;3.10;99.90;;;;;;5101280;28;20488;-58
2021/10/24 07:28:34;;;;;;;13.70;10.07;;;3.30;99.90;;;;;;5111890;28;20787;-58
2021/10/24 07:31:01;;;;;;;14.93;8.60;;;3.60;99.90;;;;;;5100132;28;20569;-60
2021/10/24 07:33:33;;;;;;;11.90;8.90;;;3.90;99.90;;;;;;5110383;28;20889;-60
2021/10/24 07:36:01;;;;;;;12.07;8.00;;;4.20;99.90;;;;;;5110401;28;20529;-61
2021/10/24 07:38:28;;;;;;;15.23;9.60;;;4.50;99.90;;;;;;5099070;28;20464;-62
2021/10/24 07:40:56;;;;;;;20.17;14.70;;;4.90;99.90;;;;;;5098410;28;20514;-62
2021/10/24 07:43:24;;;;;;;13.00;9.63;;;5.30;99.90;;;;;;5098050;28;20467;-61
2021/10/24 07:45:52;;;;;;;15.10;12.80;;;5.70;99.90;;;;;;5097378;28;20770;-60
2021/10/24 07:48:23;;;;;;;12.03;9.40;;;6.00;99.90;;;;;;5097666;28;20533;-61
2021/10/24 07:50:52;;;;;;;13.97;10.60;;;6.40;99.90;;;;;;5097129;28;20571;-60
2021/10/24 07:53:24;;;;;;;16.63;9.77;;;6.70;99.90;;;;;;5097265;28;20464;-60
2021/10/24 07:55:52;;;;;;;10.10;5.43;;;7.00;1.00;;;;;;5110859;28;20565;-60
2021/10/24 07:58:23;;;;;;;9.37;6.50;;;7.30;99.90;;;;;;5104316;28;20459;-61
2021/10/24 08:00:50;;;;;;;13.37;7.93;;;7.60;1.00;;;;;;5110701;28;20456;-60
2021/10/24 08:03:17;;;;;;;6.73;5.80;;;7.90;1.00;;;;;;5097089;28;20464;-60
2021/10/24 08:05:46;;;;;;;8.40;5.57;;;8.10;1.00;;;;;;5097553;28;20755;-60
2021/10/24 08:08:14;;;;;;;11.67;8.13;;;8.30;1.00;;;;;;5097411;28;20518;-61
2021/10/24 08:10:44;;;;;;;6.03;5.03;;;8.40;1.00;;;;;;5096147;28;20496;-59
2021/10/24 08:13:11;;;;;;;10.70;6.30;;;8.60;1.00;;;;;;5096866;28;20479;-61
2021/10/24 08:15:42;;;;;;;8.57;4.43;;;8.80;1.00;;;;;;5097639;28;20815;-57
2021/10/24 08:18:13;;;;;;;10.00;5.10;;;8.80;1.00;;;;;;5101259;28;20431;-58
2021/10/24 08:20:40;;;;;;;7.33;5.50;;;9.10;1.00;;;;;;5100817;28;20456;-58
2021/10/24 08:23:07;;;;;;;5.13;4.63;;;9.20;1.00;;;;;;5101216;28;20464;-59
2021/10/24 08:25:34;;;;;;;12.50;9.00;;;9.20;1.00;;;;;;5100903;28;20464;-55
2021/10/24 08:28:03;;;;;;;14.90;9.60;;;9.30;1.00;;;;;;5105884;28;20460;-56
2021/10/24 08:30:30;;;;;;;6.97;5.37;;;9.40;1.00;;;;;;5120222;28;20503;-54
2021/10/24 08:33:01;;;;;;;5.77;4.00;;;9.60;1.00;;;;;;5120436;28;20464;-55
2021/10/24 08:35:28;;;;;;;7.33;4.87;;;9.70;1.00;;;;;;5120513;28;20498;-52
2021/10/24 08:37:57;;;;;;;6.70;3.60;;;9.70;1.00;;;;;;5120622;28;20524;-55
2021/10/24 08:40:30;;;;;;;11.57;5.87;;;10.00;1.00;;;;;;5118292;28;20811;-57
2021/10/24 08:43:02;;;;;;;7.83;4.43;;;10.30;1.00;;;;;;5113580;28;20459;-54
2021/10/24 08:45:29;;;;;;;5.10;4.10;;;10.30;1.00;;;;;;5114669;28;20558;-53
2021/10/24 08:48:09;;;;;;;7.07;3.77;;;10.70;1.00;;;;;;5115817;28;20894;-55
2021/10/24 08:50:38;;;;;;;6.40;3.70;;;11.20;1.00;;;;;;5110539;28;20498;-58
2021/10/24 08:53:07;;;;;;;6.03;3.80;;;11.30;1.00;;;;;;5119725;28;20442;-54
2021/10/24 08:55:36;;;;;;;6.60;4.80;;;11.30;1.00;;;;;;5119854;28;20446;-57
2021/10/24 08:58:03;;;;;;;4.43;3.80;;;11.60;99.90;;;;;;5118677;28;20916;-55
2021/10/24 09:00:30;;;;;;;5.20;3.80;;;11.90;99.90;;;;;;5116874;28;21091;-54
2021/10/24 09:03:00;;;;;;;6.53;4.33;;;11.70;99.90;;;;;;5105292;28;20517;-54
2021/10/24 09:05:33;;;;;;;4.10;3.50;;;11.60;99.90;;;;;;5104269;28;20488;-56
2021/10/24 09:08:03;;;;;;;5.87;3.53;;;11.60;99.90;;;;;;5100294;28;20464;-55
2021/10/24 09:10:39;;;;;;;3.70;3.33;;;11.50;99.90;;;;;;5100299;28;20808;-53
2021/10/24 09:13:07;;;;;;;5.40;3.50;;;11.70;99.90;;;;;;5099878;28;20537;-51
2021/10/24 09:15:45;;;;;;;5.13;3.50;;;11.90;99.90;;;;;;5099642;28;20446;-54
2021/10/24 09:18:13;;;;;;;3.53;3.20;;;12.30;99.90;;;;;;5100484;28;20529;-52
2021/10/24 09:20:44;;;;;;;7.70;3.60;;;12.70;99.90;;;;;;5099918;28;20530;-49
2021/10/24 09:23:13;;;;;;;6.97;4.60;;;12.50;99.90;;;;;;5099933;28;20970;-49
2021/10/24 09:26:00;;;;;;;4.90;3.60;;;12.60;99.90;;;;;;5100266;28;20513;-54
2021/10/24 09:28:28;;;;;;;5.03;3.57;;;13.10;99.90;;;;;;5113967;28;20504;-50
2021/10/24 09:31:04;;;;;;;5.67;4.10;;;13.40;99.90;;;;;;5099415;28;20535;-50
2021/10/24 09:33:45;;;;;;;4.87;3.60;;;13.50;99.90;;;;;;5099719;28;20467;-56
2021/10/24 09:36:22;;;;;;;4.97;3.47;;;13.50;99.90;;;;;;5113009;28;20467;-54
2021/10/24 09:38:49;;;;;;;6.60;3.97;;;13.50;99.90;;;;;;5099140;28;20468;-54
2021/10/24 09:41:16;;;;;;;4.43;4.03;;;13.50;99.90;;;;;;5099075;28;20465;-51
2021/10/24 09:43:44;;;;;;;5.10;3.70;;;13.30;99.90;;;;;;5099093;28;20464;-52
2021/10/24 09:46:15;;;;;;;4.87;4.37;;;13.40;99.90;;;;;;5099137;28;20464;-47
2021/10/24 09:48:45;;;;;;;8.97;3.70;;;13.70;99.90;;;;;;5098863;28;20464;-53
2021/10/24 09:51:17;;;;;;;5.83;4.70;;;13.70;99.90;;;;;;5098750;28;20495;-52
2021/10/24 09:53:46;;;;;;;5.30;4.10;;;13.20;99.90;;;;;;5099317;28;20476;-52
2021/10/24 09:56:15;;;;;;;9.77;6.30;;;13.40;99.90;;;;;;5099003;28;20445;-49
2021/10/24 09:58:43;;;;;;;9.40;5.03;;;13.80;99.90;;;;;;5115281;28;20524;-49
2021/10/24 10:01:13;;;;;;;7.73;4.80;;;14.00;99.90;;;;;;5109989;28;20738;-46
2021/10/24 10:03:48;;;;;;;11.27;7.63;;;13.80;99.90;;;;;;5102843;28;20902;-47
2021/10/24 10:06:23;;;;;;;4.57;3.70;;;13.80;99.90;;;;;;5099283;28;20464;-54
2021/10/24 10:08:50;;;;;;;6.00;4.30;;;13.30;99.90;;;;;;5098948;28;20482;-56
2021/10/24 10:11:25;;;;;;;5.33;4.10;;;13.40;99.90;;;;;;5109137;27;20492;-50
2021/10/24 10:14:01;;;;;;;8.23;5.10;;;13.00;99.90;;;;;;5099059;28;20496;-51
2021/10/24 10:16:33;;;;;;;9.43;5.50;;;12.90;99.90;;;;;;5097828;28;20579;-51
2021/10/24 10:19:05;;;;;;;5.23;4.47;;;13.00;99.90;;;;;;5098456;28;20507;-52
2021/10/24 10:21:35;;;;;;;9.50;4.97;;;13.20;99.90;;;;;;5099031;28;20460;-53
2021/10/24 10:24:03;;;;;;;6.93;4.37;;;13.10;99.90;;;;;;5098997;28;20943;-46
2021/10/24 10:26:34;;;;;;;6.30;4.40;;;13.30;99.90;;;;;;5103724;28;20471;-50
2021/10/24 10:29:03;;;;;;;6.10;4.10;;;13.80;99.90;;;;;;5117700;28;20552;-47
2021/10/24 10:31:30;;;;;;;5.60;5.03;;;13.50;99.90;;;;;;5117964;28;20495;-51
2021/10/24 10:33:59;;;;;;;6.97;4.20;;;13.10;99.90;;;;;;5118537;28;20566;-48
2021/10/24 10:37:01;;;;;;;6.93;5.43;;;13.30;99.90;;;;;;5118387;28;20462;-56
2021/10/24 10:39:45;;;;;;;4.70;3.30;;;13.60;99.90;;;;;;5117578;28;20437;-48
2021/10/24 10:42:53;;;;;;;6.77;4.70;;;13.90;99.90;;;;;;5118165;28;20554;-51
2021/10/24 10:45:51;;;;;;;6.73;4.60;;;14.00;99.90;;;;;;5099992;28;20460;-57
2021/10/24 10:48:31;;;;;;;7.03;3.73;;;14.20;99.90;;;;;;5098028;28;20832;-51
2021/10/24 10:51:04;;;;;;;6.33;4.17;;;14.30;99.90;;;;;;5100382;28;20471;-50
2021/10/24 10:53:55;;;;;;;8.50;5.10;;;14.40;99.90;;;;;;5098239;28;20468;-53
2021/10/24 10:56:41;;;;;;;4.10;3.40;;;14.80;99.90;;;;;;5113372;28;20463;-55
2021/10/24 10:59:09;;;;;;;11.20;6.20;;;15.30;99.90;;;;;;5110609;28;20472;-51
2021/10/24 11:01:39;;;;;;;6.37;4.40;;;15.30;99.90;;;;;;5108297;28;20766;-53
2021/10/24 11:04:20;;;;;;;4.20;3.80;;;15.60;99.90;;;;;;5108989;28;20524;-55
2021/10/24 11:07:07;;;;;;;5.07;3.40;;;15.70;99.90;;;;;;5103714;28;20464;-57
2021/10/24 11:09:51;;;;;;;3.70;3.40;;;15.60;99.90;;;;;;5100330;28;20761;-56
2021/10/24 11:12:46;;;;;;;6.30;4.90;;;15.90;99.90;;;;;;5102170;28;20484;-58
2021/10/24 11:15:34;;;;;;;9.30;3.63;;;15.80;99.90;;;;;;5098478;28;20460;-50
2021/10/24 11:18:04;;;;;;;8.00;4.80;;;16.20;99.90;;;;;;5101266;27;20484;-55
2021/10/24 11:20:45;;;;;;;9.43;4.27;;;16.20;99.90;;;;;;5102762;28;20547;-53
2021/10/24 11:23:18;;;;;;;7.80;4.00;;;16.40;99.90;;;;;;5103024;28;20901;-56
2021/10/24 11:25:48;;;;;;;5.20;4.10;;;16.10;99.90;;;;;;5097925;28;20460;-56
2021/10/24 11:28:21;;;;;;;6.30;5.10;;;16.00;99.90;;;;;;5101335;28;20479;-56
2021/10/24 11:30:59;;;;;;;3.93;3.17;;;16.00;99.90;;;;;;5099434;28;20551;-57
2021/10/24 11:33:43;;;;;;;5.70;3.53;;;16.00;99.90;;;;;;5098426;28;20586;-51
2021/10/24 11:36:10;;;;;;;5.93;4.00;;;15.90;99.90;;;;;;5103312;28;20455;-53
2021/10/24 11:38:37;;;;;;;6.10;3.13;;;16.00;99.90;;;;;;5099590;28;20518;-58
2021/10/24 11:41:20;;;;;;;4.10;3.20;;;16.10;99.90;;;;;;5099448;28;20563;-54
2021/10/24 11:43:48;;;;;;;6.83;3.87;;;16.30;99.90;;;;;;5103154;28;20488;-57
2021/10/24 11:46:15;;;;;;;4.93;4.07;;;16.60;99.90;;;;;;5103155;28;20461;-55
2021/10/24 11:48:42;;;;;;;4.10;3.53;;;16.50;99.90;;;;;;5097449;28;20905;-57
2021/10/24 11:51:10;;;;;;;4.10;3.70;;;16.60;99.90;;;;;;5102034;28;20460;-54
2021/10/24 11:53:40;;;;;;;4.03;2.93;;;16.40;99.90;;;;;;5101327;28;20558;-55
2021/10/24 11:56:14;;;;;;;3.97;3.60;;;16.20;99.90;;;;;;5107774;28;20490;-54
2021/10/24 11:58:54;;;;;;;4.60;3.57;;;16.60;99.90;;;;;;5099207;28;20807;-50
2021/10/24 12:01:22;;;;;;;6.53;3.90;;;16.90;99.90;;;;;;5102781;28;20497;-57
2021/10/24 12:04:03;;;;;;;2.97;2.70;;;17.10;99.90;;;;;;5102484;28;20472;-55
2021/10/24 12:06:51;;;;;;;3.53;2.60;;;17.00;99.90;;;;;;5097836;28;20783;-51
2021/10/24 12:09:39;;;;;;;4.50;3.73;;;17.50;99.90;;;;;;5098074;28;20871;-57
2021/10/24 12:12:15;;;;;;;3.20;2.77;;;17.30;99.90;;;;;;5102916;28;20974;-56
2021/10/24 12:14:50;;;;;;;4.60;3.30;;;17.10;99.90;;;;;;5101759;28;20458;-57
2021/10/24 12:17:18;;;;;;;3.90;3.50;;;17.00;99.90;;;;;;5096582;28;20487;-57
2021/10/24 12:19:46;;;;;;;4.43;2.80;;;17.30;99.90;;;;;;5098300;28;20456;-56
2021/10/24 12:22:13;;;;;;;4.73;3.20;;;17.30;99.90;;;;;;5099609;28;20456;-57
2021/10/24 12:24:49;;;;;;;3.90;3.60;;;17.40;99.90;;;;;;5105344;28;20757;-56
2021/10/24 12:27:29;;;;;;;4.40;3.23;;;17.40;99.90;;;;;;5112416;28;20463;-57
2021/10/24 12:30:08;;;;;;;4.60;4.13;;;17.30;99.90;;;;;;5102884;28;20463;-56
2021/10/24 12:32:37;;;;;;;3.17;2.90;;;17.60;99.90;;;;;;5098511;28;20466;-57
2021/10/24 12:35:16;;;;;;;3.27;3.07;;;17.70;99.90;;;;;;5101301;28;20456;-57
2021/10/24 12:37:59;;;;;;;4.10;3.00;;;17.50;99.90;;;;;;5109797;28;20893;-56
2021/10/24 12:40:28;;;;;;;4.13;3.00;;;17.50;99.90;;;;;;5099317;28;20525;-57
2021/10/24 12:43:10;;;;;;;3.93;3.30;;;17.60;99.90;;;;;;5099342;28;20887;-55
2021/10/24 12:45:53;;;;;;;4.27;3.87;;;17.50;99.90;;;;;;5100724;28;20518;-55
2021/10/24 12:48:24;;;;;;;3.63;3.33;;;17.60;99.90;;;;;;5115732;28;20464;-52
2021/10/24 12:50:54;;;;;;;3.63;3.00;;;18.00;99.90;;;;;;5099514;28;20455;-53
2021/10/24 12:53:23;;;;;;;3.03;2.80;;;18.20;99.90;;;;;;5096805;28;20498;-57
2021/10/24 12:56:02;;;;;;;4.77;2.90;;;17.90;99.90;;;;;;5098196;28;20572;-48
2021/10/24 12:58:35;;;;;;;6.73;3.20;;;17.60;99.90;;;;;;5096799;28;20629;-47
2021/10/24 13:01:05;;;;;;;2.70;2.50;;;17.50;99.90;;;;;;5098388;28;20523;-56
2021/10/24 13:03:32;;;;;;;3.60;3.30;;;17.50;99.90;;;;;;5102903;28;20486;-53
2021/10/24 13:05:59;;;;;;;4.00;3.00;;;17.50;99.90;;;;;;5101438;28;20517;-53